createdAt,value
2022-10-27T00:01:08.643Z,99.76
2022-10-27T00:03:36.640Z,99.74
2022-10-27T00:06:08.136Z,99.75
2022-10-27T00:08:37.493Z,99.94
2022-10-27T00:11:08.181Z,99.96
2022-10-27T00:13:37.841Z,99.93
2022-10-27T00:16:10.905Z,100.00
2022-10-27T00:18:39.064Z,100.00
2022-10-27T00:21:10.539Z,100.00
2022-10-27T00:23:39.744Z,100.00
2022-10-27T00:26:11.102Z,100.00
2022-10-27T00:28:39.806Z,100.00
2022-10-27T00:31:14.305Z,100.00
2022-10-27T00:33:43.327Z,100.00
2022-10-27T00:36:14.391Z,100.00
2022-10-27T00:38:42.734Z,100.00
2022-10-27T00:41:26.609Z,100.00
2022-10-27T00:43:55.630Z,100.00
2022-10-27T00:46:41.090Z,100.00
2022-10-27T00:49:12.703Z,100.00
2022-10-27T00:51:44.831Z,100.00
2022-10-27T00:54:14.497Z,100.00
2022-10-27T00:56:43.884Z,100.00
2022-10-27T00:59:12.269Z,100.00
2022-10-27T01:01:43.375Z,100.00
2022-10-27T01:04:13.119Z,100.00
2022-10-27T01:06:41.085Z,100.00
2022-10-27T01:09:10.475Z,100.00
2022-10-27T01:11:38.895Z,100.00
2022-10-27T01:14:07.257Z,100.00
2022-10-27T01:16:43.205Z,100.00
2022-10-27T01:19:41.068Z,100.00
2022-10-27T01:22:21.691Z,100.00
2022-10-27T01:25:12.892Z,100.00
2022-10-27T01:28:09.666Z,100.00
2022-10-27T01:30:57.140Z,100.00
2022-10-27T01:33:35.212Z,100.00
2022-10-27T01:36:10.381Z,100.00
2022-10-27T01:38:49.273Z,100.00
2022-10-27T01:41:25.430Z,100.00
2022-10-27T01:43:59.940Z,100.00
2022-10-27T01:46:29.926Z,100.00
2022-10-27T01:48:58.772Z,100.00
2022-10-27T01:51:26.844Z,100.00
2022-10-27T01:53:56.022Z,100.00
2022-10-27T01:56:52.277Z,100.00
2022-10-27T01:59:39.685Z,100.00
2022-10-27T02:02:23.119Z,100.00
2022-10-27T02:05:05.076Z,100.00
2022-10-27T02:07:45.390Z,100.00
2022-10-27T02:10:20.754Z,100.00
2022-10-27T02:12:50.682Z,100.00
2022-10-27T02:15:32.148Z,100.00
2022-10-27T02:18:06.424Z,100.00
2022-10-27T02:20:41.763Z,100.00
2022-10-27T02:23:16.718Z,100.00
2022-10-27T02:25:53.343Z,100.00
2022-10-27T02:28:27.561Z,100.00
2022-10-27T02:31:00.893Z,100.00
2022-10-27T02:33:30.511Z,100.00
2022-10-27T02:35:59.257Z,100.00
2022-10-27T02:38:27.259Z,100.00
2022-10-27T02:40:55.427Z,100.00
2022-10-27T02:43:23.356Z,100.00
2022-10-27T02:45:51.333Z,100.00
2022-10-27T02:48:19.260Z,100.00
2022-10-27T02:50:48.561Z,100.00
2022-10-27T02:53:16.578Z,100.00
2022-10-27T02:55:44.569Z,100.00
2022-10-27T02:58:12.629Z,100.00
2022-10-27T03:00:40.750Z,100.00
2022-10-27T03:03:08.787Z,100.00
2022-10-27T03:05:36.974Z,100.00
2022-10-27T03:08:07.098Z,100.00
2022-10-27T03:10:35.158Z,100.00
2022-10-27T03:13:03.177Z,100.00
2022-10-27T03:15:31.173Z,100.00
2022-10-27T03:17:59.163Z,100.00
2022-10-27T03:20:27.161Z,100.00
2022-10-27T03:22:55.361Z,100.00
2022-10-27T03:25:24.765Z,100.00
2022-10-27T03:27:52.761Z,100.00
2022-10-27T03:30:20.778Z,100.00
2022-10-27T03:32:51.572Z,100.00
2022-10-27T03:35:21.496Z,100.00
2022-10-27T03:37:56.911Z,100.00
2022-10-27T03:40:26.703Z,100.00
2022-10-27T03:42:58.509Z,100.00
2022-10-27T03:45:27.281Z,100.00
2022-10-27T03:48:02.657Z,100.00
2022-10-27T03:50:30.783Z,100.00
2022-10-27T03:52:59.030Z,100.00
2022-10-27T03:55:28.379Z,100.00
2022-10-27T03:57:56.798Z,100.00
2022-10-27T04:00:25.073Z,100.00
2022-10-27T04:02:55.645Z,100.00
2022-10-27T04:05:24.464Z,100.00
2022-10-27T04:07:52.639Z,100.00
2022-10-27T04:10:20.645Z,100.00
2022-10-27T04:12:55.254Z,100.00
2022-10-27T04:15:25.502Z,100.00
2022-10-27T04:17:55.106Z,100.00
2022-10-27T04:20:23.908Z,100.00
2022-10-27T04:22:52.284Z,100.00
2022-10-27T04:25:20.475Z,100.00
2022-10-27T04:27:48.627Z,100.00
2022-10-27T04:30:18.745Z,100.00
2022-10-27T04:32:46.719Z,100.00
2022-10-27T04:35:14.678Z,100.00
2022-10-27T04:37:42.643Z,100.00
2022-10-27T04:40:12.226Z,100.00
2022-10-27T04:42:46.638Z,100.00
2022-10-27T04:45:15.520Z,100.00
2022-10-27T04:47:45.631Z,100.00
2022-10-27T04:50:14.031Z,100.00
2022-10-27T04:52:44.380Z,100.00
2022-10-27T04:55:12.803Z,100.00
2022-10-27T04:57:40.807Z,100.00
2022-10-27T05:00:11.400Z,100.00
2022-10-27T05:02:39.392Z,100.00
2022-10-27T05:05:09.974Z,100.00
2022-10-27T05:07:37.930Z,100.00
2022-10-27T05:10:07.090Z,100.00
2022-10-27T05:12:35.078Z,100.00
2022-10-27T05:15:03.118Z,100.00
2022-10-27T05:17:31.164Z,100.00
2022-10-27T05:19:59.123Z,100.00
2022-10-27T05:22:28.412Z,100.00
2022-10-27T05:24:56.359Z,100.00
2022-10-27T05:27:24.322Z,100.00
2022-10-27T05:29:52.317Z,100.00
2022-10-27T05:32:20.313Z,100.00
2022-10-27T05:34:48.329Z,100.00
2022-10-27T05:37:16.394Z,100.00
2022-10-27T05:39:45.706Z,100.00
2022-10-27T05:42:13.769Z,100.00
2022-10-27T05:44:41.806Z,100.00
2022-10-27T05:47:10.189Z,100.00
2022-10-27T05:49:38.185Z,100.00
2022-10-27T05:52:06.381Z,100.00
2022-10-27T05:54:34.355Z,100.00
2022-10-27T05:57:04.073Z,100.00
2022-10-27T05:59:32.031Z,100.00
2022-10-27T06:02:00.100Z,100.00
2022-10-27T06:04:28.196Z,100.00
2022-10-27T06:06:56.199Z,100.00
2022-10-27T06:09:24.156Z,100.00
2022-10-27T06:11:52.123Z,100.00
2022-10-27T06:14:21.903Z,100.00
2022-10-27T06:16:51.622Z,100.00
2022-10-27T06:19:19.559Z,100.00
2022-10-27T06:21:47.950Z,100.00
2022-10-27T06:24:15.945Z,100.00
2022-10-27T06:26:43.921Z,100.00
2022-10-27T06:29:11.874Z,100.00
2022-10-27T06:31:42.774Z,100.00
2022-10-27T06:34:10.755Z,100.00
2022-10-27T06:36:38.730Z,100.00
2022-10-27T06:39:06.671Z,100.00
2022-10-27T06:41:34.605Z,100.00
2022-10-27T06:44:02.768Z,100.00
2022-10-27T06:46:30.730Z,100.00
2022-10-27T06:49:00.749Z,100.00
2022-10-27T06:51:28.808Z,100.00
2022-10-27T06:53:56.798Z,100.00
2022-10-27T06:56:24.892Z,100.00
2022-10-27T06:58:54.152Z,100.00
2022-10-27T07:01:22.538Z,100.00
2022-10-27T07:03:52.120Z,100.00
2022-10-27T07:06:21.518Z,100.00
2022-10-27T07:08:49.990Z,100.00
2022-10-27T07:11:18.002Z,100.00
2022-10-27T07:13:45.973Z,100.00
2022-10-27T07:16:14.019Z,100.00
2022-10-27T07:18:43.273Z,100.00
2022-10-27T07:21:11.263Z,100.00
2022-10-27T07:23:40.546Z,100.00
2022-10-27T07:26:08.560Z,100.00
2022-10-27T07:28:36.908Z,100.00
2022-10-27T07:31:05.023Z,100.00
2022-10-27T07:33:33.137Z,100.00
2022-10-27T07:36:01.095Z,100.00
2022-10-27T07:38:29.052Z,100.00
2022-10-27T07:40:58.996Z,100.00
2022-10-27T07:43:26.998Z,100.00
2022-10-27T07:45:55.089Z,100.00
2022-10-27T07:48:23.121Z,100.00
2022-10-27T07:50:52.061Z,100.00
2022-10-27T07:53:20.109Z,100.00
2022-10-27T07:55:48.199Z,100.00
2022-10-27T07:58:18.738Z,100.00
2022-10-27T08:00:48.889Z,100.00
2022-10-27T08:03:19.935Z,100.00
2022-10-27T08:05:49.034Z,100.00
2022-10-27T08:08:17.875Z,100.00
2022-10-27T08:10:48.980Z,100.00
2022-10-27T08:13:19.170Z,100.00
2022-10-27T08:15:48.021Z,100.00
2022-10-27T08:18:16.134Z,100.00
2022-10-27T08:20:46.239Z,100.00
2022-10-27T08:23:16.783Z,100.00
2022-10-27T08:25:45.728Z,98.80
2022-10-27T08:28:15.770Z,96.04
2022-10-27T08:30:52.341Z,94.22
2022-10-27T08:33:21.686Z,94.25
2022-10-27T08:35:51.405Z,92.12
2022-10-27T08:38:20.598Z,91.21
2022-10-27T08:41:04.139Z,91.55
2022-10-27T08:44:11.488Z,87.12
2022-10-27T08:46:48.169Z,85.22
2022-10-27T08:49:43.475Z,84.83
2022-10-27T08:52:25.225Z,82.76
2022-10-27T08:55:00.935Z,83.89
2022-10-27T09:00:13.289Z,80.33
2022-10-27T09:03:06.380Z,79.09
2022-10-27T09:08:42.813Z,78.38
2022-10-27T09:11:27.041Z,76.58
2022-10-27T09:14:23.632Z,76.85
2022-10-27T09:16:58.661Z,72.48
2022-10-27T09:19:33.979Z,73.28
2022-10-27T09:22:07.809Z,74.26
2022-10-27T09:24:39.337Z,73.66
2022-10-27T09:27:10.093Z,74.07
2022-10-27T09:29:40.235Z,73.26
2022-10-27T09:32:19.504Z,71.99
2022-10-27T09:35:01.183Z,71.17
2022-10-27T09:37:32.462Z,70.58
2022-10-27T09:40:00.698Z,69.67
2022-10-27T09:42:30.522Z,69.25
2022-10-27T09:45:03.147Z,68.34
2022-10-27T09:47:39.754Z,67.80
2022-10-27T09:50:22.872Z,67.12
2022-10-27T09:52:51.908Z,67.02
2022-10-27T09:55:22.604Z,66.45
2022-10-27T09:57:51.615Z,66.28
2022-10-27T10:00:30.828Z,64.89
2022-10-27T10:03:06.015Z,65.25
2022-10-27T10:05:37.921Z,65.59
2022-10-27T10:08:23.595Z,65.42
2022-10-27T10:10:58.254Z,65.36
2022-10-27T10:13:27.468Z,65.04
2022-10-27T10:16:12.269Z,64.88
2022-10-27T10:18:42.103Z,64.78
2022-10-27T10:21:14.029Z,63.93
2022-10-27T10:23:51.685Z,63.90
2022-10-27T10:26:23.339Z,63.67
2022-10-27T10:28:55.378Z,64.09
2022-10-27T10:31:27.159Z,64.12
2022-10-27T10:34:03.710Z,64.15
2022-10-27T10:36:37.769Z,63.36
2022-10-27T10:39:25.011Z,63.78
2022-10-27T10:42:16.610Z,64.01
2022-10-27T10:44:48.077Z,63.88
2022-10-27T10:47:27.207Z,63.57
2022-10-27T10:50:00.497Z,63.23
2022-10-27T10:52:37.920Z,63.52
2022-10-27T10:55:09.163Z,63.61
2022-10-27T10:57:42.118Z,63.45
2022-10-27T11:00:18.709Z,63.73
2022-10-27T11:02:59.099Z,63.23
2022-10-27T11:05:32.937Z,62.25
2022-10-27T11:08:04.269Z,62.18
2022-10-27T11:10:36.871Z,62.76
2022-10-27T11:13:16.428Z,62.97
2022-10-27T11:15:52.139Z,62.94
2022-10-27T11:18:26.964Z,62.63
2022-10-27T11:21:03.445Z,62.96
2022-10-27T11:23:44.753Z,62.49
2022-10-27T11:26:15.423Z,61.28
2022-10-27T11:28:56.026Z,60.89
2022-10-27T11:31:33.843Z,60.01
2022-10-27T11:34:13.750Z,60.78
2022-10-27T11:36:48.879Z,61.41
2022-10-27T11:39:26.453Z,61.55
2022-10-27T11:42:11.033Z,61.44
2022-10-27T11:44:54.015Z,62.02
2022-10-27T11:47:33.356Z,61.88
2022-10-27T11:50:07.138Z,62.12
2022-10-27T11:52:42.906Z,61.89
2022-10-27T11:55:17.038Z,62.32
2022-10-27T11:57:56.361Z,62.32
2022-10-27T12:00:27.478Z,61.62
2022-10-27T12:03:46.762Z,62.03
2022-10-27T12:06:30.124Z,61.29
2022-10-27T12:09:16.890Z,61.64
2022-10-27T12:12:02.346Z,61.29
2022-10-27T12:14:39.670Z,61.92
2022-10-27T12:17:18.208Z,61.62
2022-10-27T12:19:49.092Z,60.64
2022-10-27T12:22:25.768Z,61.11
2022-10-27T12:25:04.113Z,61.06
2022-10-27T12:27:38.734Z,61.13
2022-10-27T12:30:15.352Z,58.77
2022-10-27T12:32:54.709Z,55.31
2022-10-27T12:35:34.053Z,53.20
2022-10-27T12:38:17.447Z,52.66
2022-10-27T12:40:54.926Z,54.27
2022-10-27T12:43:37.759Z,55.67
2022-10-27T12:46:26.273Z,56.97
2022-10-27T12:49:12.906Z,57.81
2022-10-27T12:51:56.135Z,58.68
2022-10-27T12:54:48.380Z,58.95
2022-10-27T12:57:36.958Z,60.42
2022-10-27T13:00:13.715Z,61.13
2022-10-27T13:02:58.595Z,60.87
2022-10-27T13:06:06.504Z,60.80
2022-10-27T13:09:39.320Z,61.51
2022-10-27T13:12:43.838Z,60.37
2022-10-27T13:15:49.379Z,60.77
2022-10-27T13:18:36.007Z,60.61
2022-10-27T13:21:16.002Z,59.85
2022-10-27T13:24:00.426Z,59.92
2022-10-27T13:26:36.826Z,59.50
2022-10-27T13:29:17.922Z,58.73
2022-10-27T13:32:39.959Z,56.84
2022-10-27T13:35:34.557Z,57.30
2022-10-27T13:38:27.885Z,56.79
2022-10-27T13:40:57.995Z,56.64
2022-10-27T13:43:49.028Z,56.93
2022-10-27T13:46:19.384Z,57.02
2022-10-27T13:48:50.186Z,56.42
2022-10-27T13:51:55.190Z,56.27
2022-10-27T13:54:55.284Z,56.27
2022-10-27T13:58:00.787Z,56.71
2022-10-27T14:01:19.548Z,57.32
2022-10-27T14:04:14.980Z,57.94
2022-10-27T14:06:45.579Z,57.66
2022-10-27T14:09:31.663Z,57.89
2022-10-27T14:12:06.751Z,58.03
2022-10-27T14:14:40.319Z,58.63
2022-10-27T14:17:17.716Z,58.76
2022-10-27T14:20:00.817Z,59.06
2022-10-27T14:22:37.331Z,59.13
2022-10-27T14:25:17.482Z,59.28
2022-10-27T14:27:45.973Z,59.63
2022-10-27T14:30:21.662Z,60.29
2022-10-27T14:32:50.206Z,60.57
2022-10-27T14:35:26.487Z,60.47
2022-10-27T14:37:58.103Z,60.92
2022-10-27T14:40:37.484Z,60.71
2022-10-27T14:43:16.383Z,60.85
2022-10-27T14:45:46.312Z,61.10
2022-10-27T14:48:27.432Z,61.26
2022-10-27T14:50:59.803Z,61.50
2022-10-27T14:53:34.435Z,61.69
2022-10-27T14:56:16.994Z,61.92
2022-10-27T14:58:53.646Z,61.83
2022-10-27T15:01:34.550Z,62.13
2022-10-27T15:04:17.119Z,62.37
2022-10-27T15:06:48.184Z,62.59
2022-10-27T15:09:33.047Z,62.89
2022-10-27T15:12:05.031Z,63.22
2022-10-27T15:14:35.750Z,63.33
2022-10-27T15:17:03.733Z,63.53
2022-10-27T15:19:31.738Z,63.87
2022-10-27T15:22:02.404Z,64.07
2022-10-27T15:24:30.506Z,64.13
2022-10-27T15:26:59.037Z,64.50
2022-10-27T15:29:27.081Z,64.81
2022-10-27T15:32:01.663Z,65.11
2022-10-27T15:34:34.159Z,65.40
2022-10-27T15:37:33.615Z,65.75
2022-10-27T15:40:33.238Z,66.20
2022-10-27T15:43:03.346Z,66.40
2022-10-27T15:45:41.392Z,66.66
2022-10-27T15:48:36.739Z,67.19
2022-10-27T15:51:10.129Z,67.52
2022-10-27T15:53:48.290Z,67.92
2022-10-27T15:56:38.880Z,68.45
2022-10-27T15:59:19.047Z,68.67
2022-10-27T16:01:49.459Z,69.01
2022-10-27T16:04:30.692Z,69.35
2022-10-27T16:07:32.887Z,69.52
2022-10-27T16:10:02.336Z,69.52
2022-10-27T16:12:41.693Z,69.73
2022-10-27T16:15:20.656Z,69.75
2022-10-27T16:17:54.616Z,70.18
2022-10-27T16:20:25.288Z,70.18
2022-10-27T16:22:53.518Z,70.25
2022-10-27T16:25:28.959Z,70.41
2022-10-27T16:27:57.349Z,70.36
2022-10-27T16:30:25.269Z,70.43
2022-10-27T16:33:01.659Z,70.93
2022-10-27T16:35:30.134Z,71.05
2022-10-27T16:37:58.853Z,71.26
2022-10-27T16:40:28.224Z,71.51
2022-10-27T16:42:57.634Z,71.58
2022-10-27T16:45:26.192Z,71.60
2022-10-27T16:47:54.594Z,71.93
2022-10-27T16:50:23.400Z,72.27
2022-10-27T16:52:53.392Z,72.47
2022-10-27T16:55:21.729Z,72.64
2022-10-27T16:57:51.438Z,72.98
2022-10-27T17:00:19.921Z,73.30
2022-10-27T17:02:50.625Z,73.48
2022-10-27T17:05:18.644Z,73.61
2022-10-27T17:07:48.041Z,73.75
2022-10-27T17:10:16.965Z,73.95
2022-10-27T17:12:45.084Z,74.04
2022-10-27T17:15:14.460Z,74.03
2022-10-27T17:17:42.372Z,74.15
2022-10-27T17:20:11.553Z,74.14
2022-10-27T17:22:39.424Z,74.40
2022-10-27T17:25:07.962Z,74.23
2022-10-27T17:27:35.829Z,74.01
2022-10-27T17:30:05.010Z,74.31
2022-10-27T17:32:34.214Z,74.24
2022-10-27T17:35:02.098Z,74.43
2022-10-27T17:37:30.000Z,74.48
2022-10-27T17:39:58.585Z,74.52
2022-10-27T17:42:26.674Z,74.47
2022-10-27T17:44:55.631Z,74.59
2022-10-27T17:47:24.068Z,74.65
2022-10-27T17:49:53.293Z,74.64
2022-10-27T17:52:21.218Z,74.62
2022-10-27T17:54:49.156Z,74.60
2022-10-27T17:57:18.474Z,74.20
2022-10-27T17:59:46.459Z,74.26
2022-10-27T18:04:47.669Z,74.14
2022-10-27T18:07:17.337Z,74.36
2022-10-27T18:09:45.605Z,74.46
2022-10-27T18:12:13.464Z,74.38
2022-10-27T18:14:41.376Z,74.47
2022-10-27T18:17:10.382Z,74.62
2022-10-27T18:19:40.631Z,74.65
2022-10-27T18:22:08.563Z,74.78
2022-10-27T18:24:37.839Z,74.50
2022-10-27T18:27:05.719Z,74.69
2022-10-27T18:29:35.576Z,74.87
2022-10-27T18:32:03.416Z,75.14
2022-10-27T18:34:31.311Z,75.30
2022-10-27T18:36:59.743Z,75.48
2022-10-27T18:39:27.670Z,75.65
2022-10-27T18:41:56.918Z,75.66
2022-10-27T18:44:24.887Z,74.97
2022-10-27T18:46:52.844Z,75.54
2022-10-27T18:49:25.791Z,75.90
2022-10-27T18:52:05.455Z,76.30
2022-10-27T18:54:33.318Z,76.74
2022-10-27T18:57:02.564Z,76.98
2022-10-27T18:59:30.489Z,77.42
2022-10-27T19:01:58.541Z,77.53
2022-10-27T19:04:26.565Z,77.66
2022-10-27T19:06:54.485Z,77.66
2022-10-27T19:09:22.398Z,77.88
2022-10-27T19:11:50.318Z,78.16
2022-10-27T19:14:19.670Z,78.12
2022-10-27T19:16:51.712Z,78.48
2022-10-27T19:19:24.708Z,78.73
2022-10-27T19:21:52.648Z,78.91
2022-10-27T19:24:20.619Z,79.19
2022-10-27T19:26:48.669Z,79.45
2022-10-27T19:29:16.689Z,79.72
2022-10-27T19:31:46.174Z,79.98
2022-10-27T19:34:14.542Z,80.09
2022-10-27T19:36:42.603Z,80.33
2022-10-27T19:39:12.800Z,80.54
2022-10-27T19:41:41.178Z,80.88
2022-10-27T19:44:09.171Z,81.09
2022-10-27T19:46:37.199Z,81.36
2022-10-27T19:49:08.967Z,81.54
2022-10-27T19:51:39.791Z,81.78
2022-10-27T19:54:12.414Z,81.99
2022-10-27T19:56:47.629Z,82.19
2022-10-27T19:59:17.539Z,82.59
2022-10-27T20:01:48.814Z,82.75
2022-10-27T20:04:22.179Z,82.90
2022-10-27T20:06:50.545Z,82.95
2022-10-27T20:09:21.217Z,83.11
2022-10-27T20:11:50.085Z,83.23
2022-10-27T20:14:18.732Z,83.52
2022-10-27T20:16:48.372Z,83.55
2022-10-27T20:19:18.620Z,83.79
2022-10-27T20:21:48.938Z,84.09
2022-10-27T20:24:17.681Z,83.04
2022-10-27T20:26:47.947Z,83.10
2022-10-27T20:29:19.408Z,83.38
2022-10-27T20:31:49.851Z,83.16
2022-10-27T20:34:17.972Z,82.13
2022-10-27T20:36:47.644Z,80.79
2022-10-27T20:39:15.920Z,80.99
2022-10-27T20:41:44.122Z,80.71
2022-10-27T20:44:12.195Z,80.42
2022-10-27T20:46:40.268Z,80.23
2022-10-27T20:49:08.823Z,81.04
2022-10-27T20:51:36.776Z,80.97
2022-10-27T20:54:06.243Z,81.39
2022-10-27T20:56:37.018Z,81.29
2022-10-27T20:59:06.802Z,82.02
2022-10-27T21:01:37.226Z,82.38
2022-10-27T21:04:08.489Z,81.94
2022-10-27T21:06:40.572Z,82.42
2022-10-27T21:09:12.499Z,82.81
2022-10-27T21:11:40.613Z,82.02
2022-10-27T21:14:09.959Z,81.17
2022-10-27T21:16:38.921Z,81.86
2022-10-27T21:19:09.592Z,82.08
2022-10-27T21:21:39.081Z,82.33
2022-10-27T21:24:10.995Z,83.01
2022-10-27T21:26:42.435Z,83.59
2022-10-27T21:29:11.437Z,83.23
2022-10-27T21:31:40.695Z,83.51
2022-10-27T21:34:08.893Z,82.13
2022-10-27T21:36:36.922Z,82.63
2022-10-27T21:39:09.519Z,83.30
2022-10-27T21:41:38.413Z,83.86
2022-10-27T21:44:06.592Z,84.21
2022-10-27T21:46:34.596Z,84.54
2022-10-27T21:49:03.095Z,84.80
2022-10-27T21:51:31.922Z,84.76
2022-10-27T21:54:02.123Z,84.85
2022-10-27T21:56:33.597Z,83.89
2022-10-27T21:59:02.298Z,83.63
2022-10-27T22:01:31.103Z,83.79
2022-10-27T22:03:59.477Z,84.29
2022-10-27T22:06:30.335Z,84.49
2022-10-27T22:08:59.772Z,84.65
2022-10-27T22:11:33.165Z,84.92
2022-10-27T22:14:01.578Z,84.97
2022-10-27T22:16:31.641Z,85.04
2022-10-27T22:19:02.689Z,84.43
2022-10-27T22:21:34.373Z,84.23
2022-10-27T22:24:03.253Z,84.24
2022-10-27T22:26:35.438Z,84.37
2022-10-27T22:29:03.414Z,84.46
2022-10-27T22:31:32.506Z,84.21
2022-10-27T22:34:03.894Z,83.08
2022-10-27T22:36:33.926Z,83.25
2022-10-27T22:39:04.638Z,82.37
2022-10-27T22:41:36.357Z,81.92
2022-10-27T22:44:05.273Z,80.92
2022-10-27T22:46:34.937Z,80.07
2022-10-27T22:49:04.234Z,79.79
2022-10-27T22:51:32.435Z,78.94
2022-10-27T22:54:00.420Z,76.42
2022-10-27T22:56:31.266Z,76.30
2022-10-27T22:59:03.676Z,76.07
2022-10-27T23:01:34.902Z,75.93
2022-10-27T23:04:05.547Z,75.90
2022-10-27T23:06:37.532Z,76.74
2022-10-27T23:09:08.227Z,77.05
2022-10-27T23:11:37.501Z,75.86
2022-10-27T23:14:08.073Z,76.47
2022-10-27T23:16:36.174Z,76.90
2022-10-27T23:19:05.678Z,76.46
2022-10-27T23:21:35.949Z,76.05
2022-10-27T23:24:05.494Z,76.55
2022-10-27T23:26:36.285Z,77.14
2022-10-27T23:29:11.511Z,77.67
2022-10-27T23:31:40.389Z,78.08
2022-10-27T23:34:08.947Z,78.65
2022-10-27T23:36:39.211Z,79.63
2022-10-27T23:39:07.434Z,80.02
2022-10-27T23:41:35.398Z,80.89
2022-10-27T23:44:03.690Z,81.41
2022-10-27T23:46:33.076Z,81.41
2022-10-27T23:49:01.332Z,81.78
2022-10-27T23:51:29.848Z,81.97
2022-10-27T23:53:57.890Z,82.12
2022-10-27T23:56:26.793Z,82.40
2022-10-27T23:58:54.873Z,82.42
